createdAt,value
2022-09-04T00:01:22.792Z,4.80
2022-09-04T00:03:59.593Z,6.38
2022-09-04T00:06:34.839Z,5.63
2022-09-04T00:09:14.057Z,7.10
2022-09-04T00:11:51.138Z,7.15
2022-09-04T00:14:23.359Z,5.88
2022-09-04T00:16:58.613Z,5.00
2022-09-04T00:19:33.831Z,5.03
2022-09-04T00:22:04.431Z,8.87
2022-09-04T00:24:38.306Z,6.30
2022-09-04T00:27:11.120Z,5.60
2022-09-04T00:29:49.769Z,7.05
2022-09-04T00:32:26.311Z,5.70
2022-09-04T00:35:04.825Z,7.00
2022-09-04T00:37:38.319Z,4.40
2022-09-04T00:40:10.881Z,4.85
2022-09-04T00:43:06.767Z,3.67
2022-09-04T00:45:54.598Z,3.50
2022-09-04T00:48:56.575Z,3.58
2022-09-04T00:51:33.549Z,3.05
2022-09-04T00:54:25.618Z,5.72
2022-09-04T00:57:24.213Z,2.67
2022-09-04T01:00:09.090Z,5.18
2022-09-04T01:02:58.919Z,2.05
2022-09-04T01:05:41.408Z,3.05
2022-09-04T01:08:24.314Z,1.90
2022-09-04T01:11:03.999Z,2.83
2022-09-04T01:13:41.247Z,1.95
2022-09-04T01:16:17.028Z,2.83
2022-09-04T01:18:57.309Z,2.95
2022-09-04T01:21:49.743Z,8.07
2022-09-04T01:24:34.800Z,7.85
2022-09-04T01:27:09.546Z,9.70
2022-09-04T01:29:48.084Z,6.67
2022-09-04T01:32:30.835Z,8.70
2022-09-04T01:35:07.109Z,6.72
2022-09-04T01:37:49.607Z,6.72
2022-09-04T01:40:35.441Z,6.65
2022-09-04T01:43:11.314Z,8.45
2022-09-04T01:46:10.314Z,11.73
2022-09-04T01:48:47.688Z,8.55
2022-09-04T01:51:25.258Z,7.75
2022-09-04T01:54:07.384Z,6.97
2022-09-04T01:56:44.572Z,9.32
2022-09-04T01:59:24.839Z,7.45
2022-09-04T02:01:59.581Z,7.90
2022-09-04T02:04:35.424Z,5.03
2022-09-04T02:07:16.145Z,6.35
2022-09-04T02:09:54.400Z,4.97
2022-09-04T02:12:36.141Z,4.38
2022-09-04T02:15:13.690Z,5.78
2022-09-04T02:17:49.145Z,7.32
2022-09-04T02:20:26.097Z,3.63
2022-09-04T02:23:08.332Z,2.83
2022-09-04T02:25:46.310Z,4.45
2022-09-04T02:28:26.013Z,4.28
2022-09-04T02:31:05.328Z,3.55
2022-09-04T02:33:43.353Z,6.40
2022-09-04T02:36:17.836Z,4.53
2022-09-04T02:38:57.208Z,3.50
2022-09-04T02:41:32.424Z,5.18
2022-09-04T02:44:14.718Z,7.35
2022-09-04T02:46:58.114Z,10.38
2022-09-04T02:49:36.060Z,7.97
2022-09-04T02:52:18.672Z,7.03
2022-09-04T02:55:05.302Z,9.07
2022-09-04T02:57:47.842Z,12.02
2022-09-04T03:00:20.964Z,7.65
2022-09-04T03:02:59.552Z,7.30
2022-09-04T03:05:32.484Z,10.00
2022-09-04T03:08:05.424Z,11.98
2022-09-04T03:10:39.488Z,9.63
2022-09-04T03:13:15.805Z,16.17
2022-09-04T03:15:49.207Z,15.70
2022-09-04T03:18:27.281Z,12.47
2022-09-04T03:20:59.568Z,14.23
2022-09-04T03:23:36.612Z,16.25
2022-09-04T03:26:17.733Z,15.57
2022-09-04T03:28:56.524Z,12.68
2022-09-04T03:31:33.207Z,10.73
2022-09-04T03:34:19.936Z,13.93
2022-09-04T03:37:04.254Z,11.88
2022-09-04T03:39:42.647Z,14.93
2022-09-04T03:42:19.147Z,13.38
2022-09-04T03:45:00.770Z,14.77
2022-09-04T03:47:38.668Z,10.07
2022-09-04T03:50:20.930Z,13.05
2022-09-04T03:52:58.203Z,12.73
2022-09-04T03:56:14.117Z,2.08
2022-09-04T03:58:50.624Z,5.18
2022-09-04T04:01:25.233Z,1.63
2022-09-04T04:04:17.659Z,1.77
2022-09-04T04:06:53.733Z,0.30
2022-09-04T04:09:47.954Z,1.70
2022-09-04T04:12:34.040Z,1.42
2022-09-04T04:15:20.604Z,0.85
2022-09-04T04:18:26.966Z,0.53
2022-09-04T04:21:02.678Z,0.15
2022-09-04T04:24:05.053Z,0.43
2022-09-04T04:26:42.570Z,0.20
2022-09-04T04:29:34.836Z,0.80
2022-09-04T04:32:18.534Z,0.32
2022-09-04T04:35:03.465Z,0.20
2022-09-04T04:37:44.624Z,0.60
2022-09-04T04:40:22.466Z,0.30
2022-09-04T04:42:57.347Z,1.05
2022-09-04T04:45:49.647Z,0.70
2022-09-04T04:48:41.370Z,0.45
2022-09-04T04:51:20.462Z,0.90
2022-09-04T04:53:57.120Z,1.15
2022-09-04T04:56:34.937Z,0.43
2022-09-04T04:59:20.796Z,0.73
2022-09-04T05:01:59.137Z,0.60
2022-09-04T05:04:40.268Z,0.57
2022-09-04T05:07:14.367Z,0.40
2022-09-04T05:09:50.185Z,0.52
2022-09-04T05:12:30.600Z,0.70
2022-09-04T05:15:08.025Z,0.60
2022-09-04T05:17:43.464Z,0.50
2022-09-04T05:20:34.749Z,0.75
2022-09-04T05:23:13.873Z,0.40
2022-09-04T05:25:47.675Z,0.75
2022-09-04T05:28:27.943Z,0.40
2022-09-04T05:31:06.655Z,0.30
2022-09-04T05:33:40.978Z,1.33
2022-09-04T05:36:17.756Z,1.35
2022-09-04T05:38:57.257Z,1.10
2022-09-04T05:41:39.301Z,0.40
2022-09-04T05:44:29.701Z,1.40
2022-09-04T05:47:11.549Z,0.50
2022-09-04T05:49:59.628Z,0.20
2022-09-04T05:52:45.985Z,1.50
2022-09-04T05:55:37.875Z,0.35
2022-09-04T05:58:26.940Z,1.00
2022-09-04T06:01:06.799Z,0.65
2022-09-04T06:04:06.845Z,0.82
2022-09-04T06:06:44.513Z,0.80
2022-09-04T06:09:37.026Z,0.98
2022-09-04T06:12:36.977Z,0.55
2022-09-04T06:15:18.863Z,3.03
2022-09-04T06:18:31.389Z,0.50
2022-09-04T06:21:14.194Z,0.88
2022-09-04T06:24:08.465Z,1.05
2022-09-04T06:26:55.541Z,0.50
2022-09-04T06:29:51.880Z,0.80
2022-09-04T06:32:35.560Z,0.60
2022-09-04T06:35:40.809Z,0.20
2022-09-04T06:38:27.477Z,0.30
2022-09-04T06:41:08.801Z,0.90
2022-09-04T06:43:44.741Z,31.48
2022-09-04T06:46:26.253Z,2.55
2022-09-04T06:49:05.893Z,0.65
2022-09-04T06:51:53.715Z,0.80
2022-09-04T06:54:37.118Z,0.43
2022-09-04T06:57:20.809Z,1.42
2022-09-04T07:00:06.440Z,1.60
2022-09-04T07:02:59.541Z,1.50
2022-09-04T07:05:33.306Z,1.30
2022-09-04T07:08:12.351Z,1.00
2022-09-04T07:10:45.465Z,2.90
2022-09-04T07:13:48.756Z,1.42
2022-09-04T07:16:33.848Z,1.90
2022-09-04T07:19:33.050Z,0.95
2022-09-04T07:22:18.030Z,1.73
2022-09-04T07:25:08.971Z,2.80
2022-09-04T07:27:55.946Z,1.30
2022-09-04T07:30:26.159Z,0.60
2022-09-04T07:32:58.894Z,0.20
2022-09-04T07:35:36.547Z,0.37
2022-09-04T07:38:14.795Z,0.32
2022-09-04T07:40:51.017Z,0.60
2022-09-04T07:43:25.535Z,1.10
2022-09-04T07:46:05.557Z,1.70
2022-09-04T07:48:39.596Z,0.38
2022-09-04T07:51:13.358Z,1.38
2022-09-04T07:54:11.593Z,0.80
2022-09-04T07:57:18.831Z,0.85
2022-09-04T08:00:04.049Z,1.00
2022-09-04T08:03:04.946Z,1.02
2022-09-04T08:05:35.012Z,1.55
2022-09-04T08:08:27.052Z,0.25
2022-09-04T08:11:07.461Z,0.40
2022-09-04T08:14:11.601Z,1.20
2022-09-04T08:16:45.879Z,0.98
2022-09-04T08:19:30.053Z,0.20
2022-09-04T08:21:58.730Z,2.70
2022-09-04T08:25:09.581Z,0.40
2022-09-04T08:28:00.983Z,0.60
2022-09-04T08:30:41.154Z,1.30
2022-09-04T08:33:24.860Z,0.80
2022-09-04T08:35:59.870Z,0.77
2022-09-04T08:38:46.635Z,2.15
2022-09-04T08:41:59.876Z,0.45
2022-09-04T08:45:04.816Z,0.63
2022-09-04T08:48:13.473Z,1.00
2022-09-04T08:51:11.654Z,1.70
2022-09-04T08:54:20.842Z,0.63
2022-09-04T08:56:55.615Z,1.40
2022-09-04T09:00:02.253Z,2.00
2022-09-04T09:03:20.345Z,1.27
2022-09-04T09:06:28.247Z,0.50
2022-09-04T09:09:35.475Z,1.07
2022-09-04T09:12:40.799Z,2.05
2022-09-04T09:15:31.265Z,2.90
2022-09-04T09:18:03.907Z,1.07
2022-09-04T09:20:46.818Z,1.60
2022-09-04T09:23:21.545Z,1.88
2022-09-04T09:25:53.374Z,1.38
2022-09-04T09:29:05.159Z,3.55
2022-09-04T09:32:07.256Z,2.97
2022-09-04T09:35:14.637Z,1.87
2022-09-04T09:38:21.807Z,2.03
2022-09-04T09:41:24.919Z,1.35
2022-09-04T09:44:31.430Z,3.17
2022-09-04T09:47:31.334Z,0.83
2022-09-04T09:50:23.530Z,2.50
2022-09-04T09:53:38.597Z,1.75
2022-09-04T09:56:59.814Z,4.30
2022-09-04T10:00:07.480Z,0.82
2022-09-04T10:03:25.887Z,2.13
2022-09-04T10:06:33.176Z,1.85
2022-09-04T10:09:37.468Z,2.38
2022-09-04T10:12:42.034Z,2.83
2022-09-04T10:15:35.873Z,2.53
2022-09-04T10:18:48.081Z,3.67
2022-09-04T10:22:01.815Z,4.10
2022-09-04T10:25:17.096Z,3.55
2022-09-04T10:28:22.626Z,4.00
2022-09-04T10:31:27.136Z,4.10
2022-09-04T10:34:14.433Z,3.72
2022-09-04T10:36:54.293Z,3.67
2022-09-04T10:39:49.653Z,5.85
2022-09-04T10:42:32.736Z,4.45
2022-09-04T10:45:17.122Z,4.15
2022-09-04T10:48:13.819Z,2.85
2022-09-04T10:51:21.172Z,3.17
2022-09-04T10:54:17.011Z,4.25
2022-09-04T10:56:59.950Z,2.27
2022-09-04T10:59:55.752Z,3.47
2022-09-04T11:03:03.395Z,5.20
2022-09-04T11:05:46.571Z,1.98
2022-09-04T11:08:36.487Z,2.45
2022-09-04T11:11:25.670Z,3.00
2022-09-04T11:14:30.608Z,5.40
2022-09-04T11:17:37.542Z,4.95
2022-09-04T11:20:48.577Z,2.53
2022-09-04T11:23:59.447Z,2.67
2022-09-04T11:27:29.466Z,3.10
2022-09-04T11:30:04.022Z,3.20
2022-09-04T11:33:04.254Z,2.35
2022-09-04T11:36:06.994Z,5.25
2022-09-04T11:39:12.138Z,5.90
2022-09-04T11:42:02.191Z,5.13
2022-09-04T11:45:08.050Z,4.40
2022-09-04T11:48:20.179Z,6.10
2022-09-04T11:51:18.373Z,3.58
2022-09-04T11:54:07.114Z,7.57
2022-09-04T11:57:04.124Z,3.60
2022-09-04T12:00:03.458Z,4.25
2022-09-04T12:03:04.260Z,3.10
2022-09-04T12:05:45.860Z,6.38
2022-09-04T12:08:36.837Z,5.45
2022-09-04T12:11:32.138Z,4.88
2022-09-04T12:14:17.683Z,4.13
2022-09-04T12:17:15.505Z,4.50
2022-09-04T12:20:27.142Z,6.22
2022-09-04T12:23:40.169Z,3.80
2022-09-04T12:26:28.603Z,3.10
2022-09-04T12:29:35.971Z,3.85
2022-09-04T12:32:36.845Z,3.28
2022-09-04T12:35:35.084Z,3.03
2022-09-04T12:38:47.472Z,4.53
2022-09-04T12:41:18.828Z,6.57
2022-09-04T12:44:06.795Z,6.88
2022-09-04T12:46:56.042Z,4.28
2022-09-04T12:49:49.924Z,6.25
2022-09-04T12:52:27.622Z,4.38
2022-09-04T12:55:05.747Z,5.28
2022-09-04T12:57:45.687Z,3.95
2022-09-04T13:00:18.114Z,6.80
2022-09-04T13:02:58.509Z,6.43
2022-09-04T13:05:53.258Z,4.95
2022-09-04T13:08:34.190Z,5.13
2022-09-04T13:11:15.237Z,3.45
2022-09-04T13:13:54.288Z,4.90
2022-09-04T13:16:31.086Z,3.80
2022-09-04T13:19:15.114Z,2.67
2022-09-04T13:22:04.290Z,3.75
2022-09-04T13:24:44.816Z,4.22
2022-09-04T13:27:41.345Z,3.30
2022-09-04T13:30:12.295Z,6.78
2022-09-04T13:33:04.739Z,5.47
2022-09-04T13:35:55.394Z,2.33
2022-09-04T13:38:45.127Z,2.63
2022-09-04T13:41:31.055Z,2.53
2022-09-04T13:44:24.599Z,3.67
2022-09-04T13:47:00.654Z,3.67
2022-09-04T13:49:39.049Z,4.85
2022-09-04T13:52:11.524Z,5.35
2022-09-04T13:54:44.111Z,1.98
2022-09-04T13:57:17.871Z,2.22
2022-09-04T13:59:50.196Z,4.00
2022-09-04T14:02:24.638Z,4.35
2022-09-04T14:04:57.640Z,2.97
2022-09-04T14:07:31.909Z,3.42
2022-09-04T14:10:04.245Z,5.15
2022-09-04T14:12:53.586Z,2.03
2022-09-04T14:15:43.165Z,2.67
2022-09-04T14:18:35.317Z,2.33
2022-09-04T14:21:11.856Z,3.70
2022-09-04T14:23:49.802Z,2.67
2022-09-04T14:26:30.403Z,2.83
2022-09-04T14:29:06.727Z,1.38
2022-09-04T14:31:46.742Z,0.97
2022-09-04T14:34:27.848Z,1.98
2022-09-04T14:37:08.262Z,2.65
2022-09-04T14:39:44.553Z,4.70
2022-09-04T14:42:28.618Z,2.22
2022-09-04T14:45:13.497Z,1.63
2022-09-04T14:47:47.470Z,2.33
2022-09-04T14:50:18.183Z,1.30
2022-09-04T14:52:53.781Z,1.70
2022-09-04T14:55:27.207Z,0.40
2022-09-04T14:58:00.577Z,1.50
2022-09-04T15:00:30.001Z,1.42
2022-09-04T15:03:06.666Z,5.47
2022-09-04T15:05:39.937Z,2.45
2022-09-04T15:08:13.132Z,2.38
2022-09-04T15:10:50.791Z,1.13
2022-09-04T15:13:46.942Z,2.90
2022-09-04T15:16:46.808Z,1.50
2022-09-04T15:19:29.157Z,6.50
2022-09-04T15:22:05.327Z,5.85
2022-09-04T15:24:39.851Z,4.88
2022-09-04T15:27:16.727Z,5.10
2022-09-04T15:30:03.618Z,4.93
2022-09-04T15:32:39.844Z,3.58
2022-09-04T15:35:14.584Z,1.95
2022-09-04T15:37:48.395Z,2.10
2022-09-04T15:40:28.545Z,4.95
2022-09-04T15:43:04.852Z,3.65
2022-09-04T15:45:43.168Z,3.17
2022-09-04T15:48:28.750Z,2.45
2022-09-04T15:51:21.756Z,2.72
2022-09-04T15:54:08.928Z,2.40
2022-09-04T15:56:45.467Z,2.17
2022-09-04T15:59:18.391Z,4.53
2022-09-04T16:01:57.252Z,2.17
2022-09-04T16:04:34.444Z,3.33
2022-09-04T16:07:36.685Z,2.53
2022-09-04T16:10:14.684Z,4.28
2022-09-04T16:12:52.090Z,3.95
2022-09-04T16:15:27.173Z,2.78
2022-09-04T16:17:56.868Z,3.85
2022-09-04T16:20:35.441Z,2.78
2022-09-04T16:23:08.660Z,2.40
2022-09-04T16:25:41.322Z,3.00
2022-09-04T16:28:19.181Z,5.00
2022-09-04T16:30:49.368Z,3.17
2022-09-04T16:33:28.157Z,2.30
2022-09-04T16:36:01.563Z,1.70
2022-09-04T16:38:33.429Z,2.00
2022-09-04T16:41:09.853Z,3.55
2022-09-04T16:43:39.751Z,2.78
2022-09-04T16:46:14.865Z,3.25
2022-09-04T16:48:51.774Z,3.35
2022-09-04T16:51:40.420Z,4.72
2022-09-04T16:54:18.238Z,3.38
2022-09-04T16:56:53.413Z,2.75
2022-09-04T16:59:46.157Z,4.17
2022-09-04T17:02:23.009Z,4.07
2022-09-04T17:05:04.025Z,2.37
2022-09-04T17:07:39.567Z,2.38
2022-09-04T17:10:15.288Z,4.07
2022-09-04T17:12:49.736Z,5.32
2022-09-04T17:15:28.118Z,2.25
2022-09-04T17:17:58.888Z,3.85
2022-09-04T17:21:09.653Z,3.83
2022-09-04T17:29:04.940Z,2.40
2022-09-04T17:29:16.012Z,2.97
2022-09-04T17:32:25.638Z,6.70
2022-09-04T17:40:41.511Z,5.45
2022-09-04T17:40:46.828Z,1.87
2022-09-04T17:41:40.063Z,3.83
2022-09-04T17:44:25.528Z,3.35
2022-09-04T17:47:07.654Z,7.82
2022-09-04T17:49:36.618Z,4.13
2022-09-04T17:52:09.182Z,3.92
2022-09-04T17:54:42.633Z,2.80
2022-09-04T17:57:26.252Z,3.92
2022-09-04T18:00:01.965Z,2.60
2022-09-04T18:02:41.086Z,1.77
2022-09-04T18:05:19.525Z,2.33
2022-09-04T18:08:09.127Z,4.43
2022-09-04T18:10:52.024Z,2.53
2022-09-04T18:13:37.198Z,1.95
2022-09-04T18:16:17.100Z,2.78
2022-09-04T18:18:50.473Z,1.40
2022-09-04T18:21:23.312Z,2.10
2022-09-04T18:23:59.328Z,5.05
2022-09-04T18:26:40.801Z,4.93
2022-09-04T18:31:02.471Z,1.95
2022-09-04T18:37:06.804Z,3.33
2022-09-04T18:37:23.391Z,2.70
2022-09-04T18:38:35.418Z,2.55
2022-09-04T18:46:19.559Z,3.22
2022-09-04T18:50:24.745Z,3.15
2022-09-04T18:50:46.977Z,3.45
2022-09-04T18:50:53.075Z,2.20
2022-09-04T18:53:03.852Z,2.33
2022-09-04T18:55:38.446Z,2.95
2022-09-04T18:58:40.130Z,4.47
2022-09-04T19:01:26.857Z,5.10
2022-09-04T19:03:58.042Z,4.00
2022-09-04T19:06:38.841Z,7.05
2022-09-04T19:09:16.036Z,4.35
2022-09-04T19:11:49.120Z,4.30
2022-09-04T19:14:25.178Z,4.18
2022-09-04T19:16:56.132Z,5.25
2022-09-04T19:19:30.665Z,4.10
2022-09-04T19:22:07.299Z,6.18
2022-09-04T19:24:47.124Z,3.85
2022-09-04T19:27:29.318Z,6.43
2022-09-04T19:30:18.444Z,4.67
2022-09-04T19:33:04.808Z,4.22
2022-09-04T19:35:38.398Z,3.40
2022-09-04T19:45:53.809Z,4.60
2022-09-04T19:46:05.049Z,1.83
2022-09-04T19:46:07.203Z,4.88
2022-09-04T19:47:28.416Z,3.87
2022-09-04T19:53:22.272Z,5.38
2022-09-04T19:53:32.459Z,4.25
2022-09-04T19:55:47.979Z,3.42
2022-09-04T19:58:21.439Z,4.70
2022-09-04T20:00:59.428Z,6.80
2022-09-04T20:03:34.668Z,5.43
2022-09-04T20:06:21.885Z,4.07
2022-09-04T20:09:00.942Z,4.60
2022-09-04T20:11:36.506Z,5.50
2022-09-04T20:14:15.177Z,6.97
2022-09-04T20:17:00.723Z,6.25
2022-09-04T20:19:39.254Z,5.60
2022-09-04T20:22:17.558Z,8.43
2022-09-04T20:24:58.440Z,6.55
2022-09-04T20:27:36.579Z,8.17
2022-09-04T20:30:12.437Z,6.00
2022-09-04T20:32:56.244Z,8.07
2022-09-04T20:35:34.129Z,6.63
2022-09-04T20:38:12.294Z,7.82
2022-09-04T20:40:45.284Z,7.03
2022-09-04T20:43:26.873Z,8.63
2022-09-04T20:50:20.021Z,8.00
2022-09-04T20:52:42.681Z,5.82
2022-09-04T20:52:59.682Z,7.05
2022-09-04T20:55:16.577Z,6.47
2022-09-04T21:00:39.263Z,6.75
2022-09-04T21:03:20.597Z,7.53
2022-09-04T21:04:23.906Z,5.67
2022-09-04T21:07:11.662Z,7.67
2022-09-04T21:09:56.089Z,5.30
2022-09-04T21:12:33.774Z,6.03
2022-09-04T21:15:10.532Z,4.35
2022-09-04T21:18:09.003Z,5.53
2022-09-04T21:21:00.088Z,5.43
2022-09-04T21:24:03.251Z,5.15
2022-09-04T21:27:06.703Z,5.82
2022-09-04T21:29:53.254Z,6.30
2022-09-04T21:33:26.683Z,7.38
2022-09-04T21:35:55.231Z,6.35
2022-09-04T21:38:54.467Z,6.40
2022-09-04T21:41:41.618Z,7.72
2022-09-04T21:44:44.191Z,8.55
2022-09-04T21:47:35.464Z,6.85
2022-09-04T21:50:37.135Z,6.68
2022-09-04T21:53:32.790Z,7.97
2022-09-04T21:58:52.419Z,9.93
2022-09-04T22:02:43.610Z,8.45
2022-09-04T22:02:51.463Z,7.22
2022-09-04T22:05:33.876Z,7.85
2022-09-04T22:13:26.391Z,8.27
2022-09-04T22:13:42.849Z,10.60
2022-09-04T22:14:31.392Z,10.40
2022-09-04T22:17:14.591Z,8.73
2022-09-04T22:20:19.529Z,9.95
2022-09-04T22:23:39.716Z,14.07
2022-09-04T22:26:30.208Z,9.70
2022-09-04T22:29:26.755Z,9.90
2022-09-04T22:32:46.497Z,10.32
2022-09-04T22:35:44.882Z,9.27
2022-09-04T22:38:35.656Z,7.32
2022-09-04T22:41:42.911Z,7.28
2022-09-04T22:44:21.528Z,5.60
2022-09-04T22:47:29.232Z,7.28
2022-09-04T22:50:48.795Z,8.27
2022-09-04T22:53:39.467Z,5.28
2022-09-04T22:56:24.382Z,5.88
2022-09-04T22:59:26.930Z,7.07
2022-09-04T23:02:15.622Z,9.60
2022-09-04T23:05:04.990Z,7.38
2022-09-04T23:13:48.403Z,8.33
2022-09-04T23:14:02.712Z,7.10
2022-09-04T23:14:07.533Z,8.57
2022-09-04T23:16:52.776Z,9.23
2022-09-04T23:26:31.252Z,8.80
2022-09-04T23:26:49.977Z,7.37
2022-09-04T23:26:54.234Z,11.77
2022-09-04T23:29:21.424Z,9.70
2022-09-04T23:32:13.372Z,10.98
2022-09-04T23:35:15.087Z,10.85
2022-09-04T23:38:00.615Z,8.50
2022-09-04T23:40:39.336Z,7.93
2022-09-04T23:43:40.147Z,8.82
2022-09-04T23:46:33.680Z,13.68
2022-09-04T23:49:32.453Z,6.00
2022-09-04T23:52:08.104Z,7.93
2022-09-04T23:55:17.821Z,8.57
2022-09-04T23:57:53.946Z,11.55
